Terminal Aerodrome Forecast
Issued by NWS North Platte, NE

Home | Current Version | Previous Version | Graphics & Text | Print | Product List | Glossary On
Versions: 1 2 3 4 5 6 7 8 9 10 11 12 13
000
FTUS43 KLBF 191720
TAFVTN
TAF
KVTN 191720Z 1918/2018 32014G21KT P6SM FEW250
     FM200000 31009KT P6SM FEW250
     FM200200 VRB03KT P6SM FEW250
     FM201600 32007KT P6SM FEW250=

USA.gov is the U.S. government's official web portal to all federal, state and local government web resources and services.